createdAt,value
2019-06-08T00:00:30.612Z,36.80
2019-06-08T00:02:59.542Z,36.40
2019-06-08T00:05:27.958Z,36.40
2019-06-08T00:07:56.345Z,36.40
2019-06-08T00:10:25.864Z,36.30
2019-06-08T00:12:55.195Z,36.40
2019-06-08T00:15:24.460Z,36.20
2019-06-08T00:17:52.889Z,36.40
2019-06-08T00:20:21.881Z,36.60
2019-06-08T00:22:50.385Z,36.70
2019-06-08T00:25:19.549Z,36.60
2019-06-08T00:27:48.970Z,36.40
2019-06-08T00:30:18.510Z,36.10
2019-06-08T00:32:46.915Z,35.80
2019-06-08T00:35:16.557Z,36.50
2019-06-08T00:37:45.183Z,35.80
2019-06-08T00:40:14.779Z,35.40
2019-06-08T00:42:43.332Z,35.20
2019-06-08T00:45:12.377Z,35.60
2019-06-08T00:47:47.456Z,35.70
2019-06-08T00:50:11.762Z,35.40
2019-06-08T00:52:40.157Z,35.10
2019-06-08T00:55:08.809Z,35.20
2019-06-08T00:57:37.272Z,35.30
2019-06-08T01:00:10.656Z,35.30
2019-06-08T01:02:37.363Z,35.30
2019-06-08T01:05:06.715Z,35.40
2019-06-08T01:07:35.298Z,34.90
2019-06-08T01:10:06.871Z,33.70
2019-06-08T01:12:35.349Z,34.20
2019-06-08T01:15:05.504Z,34.10
2019-06-08T01:17:33.972Z,33.60
2019-06-08T01:20:02.447Z,33.00
2019-06-08T01:22:30.861Z,33.00
2019-06-08T01:24:59.282Z,31.70
2019-06-08T01:27:28.154Z,31.60
2019-06-08T01:29:56.713Z,30.90
2019-06-08T01:32:26.335Z,31.20
2019-06-08T01:34:54.990Z,31.20
2019-06-08T01:37:23.414Z,31.20
2019-06-08T01:39:51.829Z,31.20
2019-06-08T01:42:21.393Z,31.20
2019-06-08T01:44:50.008Z,30.90
2019-06-08T01:47:18.446Z,31.00
2019-06-08T01:49:46.901Z,30.40
2019-06-08T01:52:15.349Z,30.30
2019-06-08T01:54:43.764Z,30.10
2019-06-08T01:57:12.205Z,30.40
2019-06-08T01:59:40.605Z,30.80
2019-06-08T02:02:09.102Z,30.60
2019-06-08T02:04:37.490Z,30.60
2019-06-08T02:07:05.942Z,30.90
2019-06-08T02:09:34.857Z,30.80
2019-06-08T02:12:03.481Z,30.70
2019-06-08T02:14:33.161Z,30.60
2019-06-08T02:17:01.830Z,30.30
2019-06-08T02:19:30.570Z,30.50
2019-06-08T02:21:59.129Z,30.70
2019-06-08T02:24:29.148Z,30.90
2019-06-08T02:26:57.676Z,31.20
2019-06-08T02:29:27.403Z,30.80
2019-06-08T02:31:55.899Z,30.60
2019-06-08T02:34:24.321Z,30.50
2019-06-08T02:36:52.753Z,30.80
2019-06-08T02:39:21.161Z,31.00
2019-06-08T02:41:49.617Z,31.00
2019-06-08T02:44:18.047Z,31.00
2019-06-08T02:46:46.456Z,30.90
2019-06-08T02:49:14.951Z,31.10
2019-06-08T02:51:44.217Z,31.10
2019-06-08T02:54:13.271Z,31.50
2019-06-08T02:56:43.261Z,32.40
2019-06-08T02:59:14.785Z,33.30
2019-06-08T03:01:44.992Z,32.80
2019-06-08T03:04:16.016Z,32.50
2019-06-08T03:06:46.473Z,32.30
2019-06-08T03:09:16.624Z,32.50
2019-06-08T03:11:46.656Z,32.50
2019-06-08T03:14:17.822Z,32.70
2019-06-08T03:16:46.229Z,32.60
2019-06-08T03:19:21.711Z,32.90
2019-06-08T03:21:44.833Z,32.80
2019-06-08T03:24:13.281Z,33.00
2019-06-08T03:26:44.158Z,33.20
2019-06-08T03:29:12.822Z,33.20
2019-06-08T03:31:51.633Z,33.30
2019-06-08T03:34:11.380Z,33.40
2019-06-08T03:36:49.854Z,33.50
2019-06-08T03:39:09.922Z,33.40
2019-06-08T03:41:38.909Z,33.70
2019-06-08T03:44:08.444Z,33.70
2019-06-08T03:46:38.654Z,34.00
2019-06-08T03:49:07.003Z,33.90
2019-06-08T03:51:38.597Z,34.10
2019-06-08T03:54:05.579Z,34.00
2019-06-08T03:56:35.709Z,34.00
2019-06-08T03:59:04.786Z,34.30
2019-06-08T04:01:33.178Z,34.30
2019-06-08T04:04:01.598Z,34.50
2019-06-08T04:06:30.412Z,34.40
2019-06-08T04:08:59.083Z,34.70
2019-06-08T04:11:27.488Z,34.70
2019-06-08T04:13:55.942Z,34.60
2019-06-08T04:16:24.650Z,34.70
2019-06-08T04:18:53.054Z,34.90
2019-06-08T04:21:21.469Z,34.80
2019-06-08T04:23:50.688Z,34.90
2019-06-08T04:26:19.601Z,35.00
2019-06-08T04:28:49.667Z,34.70
2019-06-08T04:31:18.160Z,34.90
2019-06-08T04:33:46.803Z,34.60
2019-06-08T04:36:15.562Z,35.10
2019-06-08T04:38:45.845Z,35.20
2019-06-08T04:41:14.081Z,34.40
2019-06-08T04:43:43.369Z,34.70
2019-06-08T04:46:12.885Z,34.90
2019-06-08T04:48:43.118Z,34.90
2019-06-08T04:51:11.725Z,34.50
2019-06-08T04:53:40.875Z,34.80
2019-06-08T04:56:10.099Z,34.40
2019-06-08T04:58:39.798Z,34.70
2019-06-08T05:01:08.696Z,34.70
2019-06-08T05:03:39.030Z,35.10
2019-06-08T05:06:07.244Z,35.00
2019-06-08T05:08:35.632Z,35.00
2019-06-08T05:11:04.445Z,35.00
2019-06-08T05:13:32.926Z,35.20
2019-06-08T05:16:01.417Z,35.30
2019-06-08T05:18:29.816Z,35.00
2019-06-08T05:20:58.246Z,34.60
2019-06-08T05:23:26.689Z,35.20
2019-06-08T05:25:55.092Z,34.40
2019-06-08T05:28:23.605Z,34.50
2019-06-08T05:30:52.371Z,34.80
2019-06-08T05:33:21.209Z,34.70
2019-06-08T05:35:49.851Z,34.50
2019-06-08T05:38:18.789Z,34.50
2019-06-08T05:40:47.678Z,34.30
2019-06-08T05:43:16.291Z,34.20
2019-06-08T05:45:45.708Z,34.40
2019-06-08T05:48:14.871Z,34.30
2019-06-08T05:50:56.883Z,34.40
2019-06-08T05:53:13.878Z,34.30
2019-06-08T05:55:42.302Z,34.30
2019-06-08T05:58:10.720Z,34.30
2019-06-08T06:00:40.037Z,34.80
2019-06-08T06:03:08.957Z,34.70
2019-06-08T06:05:37.354Z,34.70
2019-06-08T06:08:17.970Z,35.00
2019-06-08T06:10:35.952Z,34.70
2019-06-08T06:13:04.825Z,35.10
2019-06-08T06:15:33.229Z,35.40
2019-06-08T06:18:01.640Z,35.20
2019-06-08T06:20:30.069Z,35.30
2019-06-08T06:22:58.789Z,35.30
2019-06-08T06:25:27.290Z,35.40
2019-06-08T06:27:55.735Z,35.50
2019-06-08T06:30:24.222Z,35.40
2019-06-08T06:32:52.625Z,35.50
2019-06-08T06:35:21.094Z,35.50
2019-06-08T06:37:50.224Z,35.80
2019-06-08T06:40:18.772Z,35.50
2019-06-08T06:42:48.030Z,35.60
2019-06-08T06:45:16.717Z,35.60
2019-06-08T06:47:46.432Z,35.60
2019-06-08T06:50:15.279Z,35.60
2019-06-08T06:52:44.617Z,35.70
2019-06-08T06:55:13.926Z,35.80
2019-06-08T06:57:43.494Z,35.80
2019-06-08T07:00:12.359Z,36.20
2019-06-08T07:02:40.776Z,36.20
2019-06-08T07:05:09.321Z,36.60
2019-06-08T07:07:37.717Z,36.80
2019-06-08T07:10:08.583Z,37.00
2019-06-08T07:12:37.096Z,36.90
2019-06-08T07:15:07.643Z,37.00
2019-06-08T07:17:36.053Z,37.20
2019-06-08T07:20:13.396Z,37.10
2019-06-08T07:22:41.805Z,37.40
2019-06-08T07:25:10.293Z,37.10
2019-06-08T07:27:38.701Z,37.20
2019-06-08T07:30:08.226Z,37.30
2019-06-08T07:32:36.700Z,37.30
2019-06-08T07:35:08.000Z,37.50
2019-06-08T07:37:36.440Z,37.30
2019-06-08T07:40:08.189Z,37.00
2019-06-08T07:42:36.672Z,37.60
2019-06-08T07:45:06.913Z,36.90
2019-06-08T07:47:35.408Z,37.10
2019-06-08T07:50:06.449Z,37.30
2019-06-08T07:52:34.928Z,37.00
2019-06-08T07:55:04.105Z,36.70
2019-06-08T07:57:32.520Z,36.90
2019-06-08T08:00:08.857Z,36.70
2019-06-08T08:02:31.071Z,36.90
2019-06-08T08:04:59.469Z,36.90
2019-06-08T08:07:27.898Z,36.80
2019-06-08T08:09:56.976Z,36.50
2019-06-08T08:12:25.677Z,36.50
2019-06-08T08:14:55.415Z,36.50
2019-06-08T08:17:24.035Z,36.50
2019-06-08T08:19:53.073Z,36.80
2019-06-08T08:22:26.010Z,36.40
2019-06-08T08:24:54.423Z,36.60
2019-06-08T08:27:21.885Z,36.80
2019-06-08T08:29:51.353Z,36.70
2019-06-08T08:32:19.886Z,36.90
2019-06-08T08:34:50.429Z,37.30
2019-06-08T08:37:18.477Z,37.50
2019-06-08T08:39:47.400Z,36.80
2019-06-08T08:42:18.042Z,36.80
2019-06-08T08:45:08.802Z,35.30
2019-06-08T08:47:38.716Z,35.10
2019-06-08T08:50:07.813Z,33.70
2019-06-08T08:52:39.877Z,33.10
2019-06-08T08:55:08.321Z,34.00
2019-06-08T08:57:38.558Z,33.20
2019-06-08T09:00:09.038Z,32.30
2019-06-08T09:02:38.715Z,32.50
2019-06-08T09:05:08.676Z,31.80
2019-06-08T09:07:38.467Z,30.30
2019-06-08T09:10:11.164Z,30.20
2019-06-08T09:12:38.358Z,29.80
2019-06-08T09:15:08.645Z,30.30
2019-06-08T09:17:38.779Z,30.40
2019-06-08T09:20:13.099Z,30.50
2019-06-08T09:22:52.924Z,29.00
2019-06-08T09:25:13.379Z,29.90
2019-06-08T09:27:40.367Z,28.80
2019-06-08T09:30:09.425Z,28.90
2019-06-08T09:32:38.354Z,28.80
2019-06-08T09:35:09.329Z,28.80
2019-06-08T09:37:37.728Z,29.00
2019-06-08T09:40:06.581Z,29.10
2019-06-08T09:42:35.042Z,28.70
2019-06-08T09:45:08.972Z,28.80
2019-06-08T09:47:38.183Z,28.40
2019-06-08T09:50:09.691Z,28.40
2019-06-08T09:52:40.901Z,28.50
2019-06-08T09:55:09.550Z,27.90
2019-06-08T09:57:38.540Z,26.70
2019-06-08T10:00:15.303Z,25.80
2019-06-08T10:02:38.834Z,25.60
2019-06-08T10:05:08.017Z,25.00
2019-06-08T10:07:38.866Z,24.00
2019-06-08T10:10:09.629Z,23.40
2019-06-08T10:12:37.806Z,23.70
2019-06-08T10:15:08.384Z,23.40
2019-06-08T10:17:37.776Z,22.50
2019-06-08T10:20:09.837Z,22.40
2019-06-08T10:22:37.241Z,22.30
2019-06-08T10:25:10.772Z,22.60
2019-06-08T10:27:38.599Z,23.30
2019-06-08T10:30:10.205Z,21.90
2019-06-08T10:32:39.003Z,22.20
2019-06-08T10:35:10.390Z,21.10
2019-06-08T10:37:38.474Z,21.30
2019-06-08T10:40:07.852Z,20.90
2019-06-08T10:42:39.792Z,20.10
2019-06-08T10:45:12.139Z,20.10
2019-06-08T10:47:38.215Z,20.90
2019-06-08T10:50:14.584Z,19.50
2019-06-08T10:52:39.115Z,19.50
2019-06-08T10:55:10.391Z,19.40
2019-06-08T10:57:38.359Z,20.40
2019-06-08T11:00:20.076Z,20.30
2019-06-08T11:02:41.555Z,21.00
2019-06-08T11:05:13.884Z,20.30
2019-06-08T11:07:40.200Z,20.00
2019-06-08T11:10:11.852Z,19.50
2019-06-08T11:12:39.135Z,19.40
2019-06-08T11:15:11.566Z,19.30
2019-06-08T11:17:37.932Z,19.50
2019-06-08T11:20:11.331Z,19.40
2019-06-08T11:22:37.612Z,19.20
2019-06-08T11:25:14.979Z,18.90
2019-06-08T11:27:38.812Z,19.60
2019-06-08T11:30:17.645Z,17.80
2019-06-08T11:32:38.457Z,18.90
2019-06-08T11:35:10.452Z,18.50
2019-06-08T11:37:38.734Z,18.60
2019-06-08T11:40:12.237Z,18.60
2019-06-08T11:42:39.264Z,18.20
2019-06-08T11:45:10.874Z,19.10
2019-06-08T11:47:39.209Z,19.10
2019-06-08T11:50:12.593Z,19.50
2019-06-08T11:52:38.793Z,20.10
2019-06-08T11:55:11.290Z,19.90
2019-06-08T11:57:40.393Z,19.10
2019-06-08T12:00:22.378Z,19.20
2019-06-08T12:02:41.287Z,19.20
2019-06-08T12:05:12.429Z,18.60
2019-06-08T12:07:40.572Z,18.90
2019-06-08T12:10:10.907Z,18.50
2019-06-08T12:12:39.226Z,17.80
2019-06-08T12:15:11.203Z,18.00
2019-06-08T12:17:38.345Z,18.40
2019-06-08T12:20:08.531Z,18.00
2019-06-08T12:22:37.723Z,18.20
2019-06-08T12:25:08.268Z,18.50
2019-06-08T12:27:40.089Z,18.50
2019-06-08T12:30:12.060Z,17.80
2019-06-08T12:32:37.706Z,17.80
2019-06-08T12:35:08.178Z,19.30
2019-06-08T12:37:38.728Z,18.30
2019-06-08T12:40:09.810Z,17.90
2019-06-08T12:42:38.185Z,18.70
2019-06-08T12:45:07.393Z,18.60
2019-06-08T12:47:37.907Z,18.40
2019-06-08T12:50:08.908Z,19.00
2019-06-08T12:52:39.130Z,19.50
2019-06-08T12:55:12.541Z,18.50
2019-06-08T12:57:37.926Z,17.20
2019-06-08T13:00:09.894Z,16.50
2019-06-08T13:02:39.208Z,16.90
2019-06-08T13:05:10.689Z,17.70
2019-06-08T13:07:38.600Z,17.80
2019-06-08T13:10:08.799Z,17.90
2019-06-08T13:12:40.681Z,17.80
2019-06-08T13:15:08.432Z,17.70
2019-06-08T13:17:38.303Z,17.80
2019-06-08T13:20:15.272Z,17.70
2019-06-08T13:22:43.778Z,17.30
2019-06-08T13:25:25.882Z,17.60
2019-06-08T13:27:42.428Z,17.30
2019-06-08T13:30:11.998Z,17.00
2019-06-08T13:32:41.771Z,16.60
2019-06-08T13:35:10.645Z,17.30
2019-06-08T13:37:39.239Z,16.80
2019-06-08T13:40:08.386Z,16.70
2019-06-08T13:42:38.283Z,16.50
2019-06-08T13:45:08.622Z,16.70
2019-06-08T13:47:40.942Z,16.70
2019-06-08T13:50:11.031Z,17.10
2019-06-08T13:52:40.028Z,16.30
2019-06-08T13:55:09.172Z,16.30
2019-06-08T13:57:37.996Z,16.60
2019-06-08T14:00:08.971Z,16.20
2019-06-08T14:02:39.676Z,15.60
2019-06-08T14:05:08.373Z,16.00
2019-06-08T14:07:38.103Z,15.70
2019-06-08T14:10:08.105Z,15.20
2019-06-08T14:12:38.457Z,15.10
2019-06-08T14:15:08.656Z,14.70
2019-06-08T14:17:37.904Z,14.50
2019-06-08T14:20:08.075Z,14.20
2019-06-08T14:22:38.866Z,14.90
2019-06-08T14:25:10.513Z,14.70
2019-06-08T14:27:37.491Z,15.10
2019-06-08T14:30:08.407Z,15.20
2019-06-08T14:32:38.104Z,15.20
2019-06-08T14:35:08.760Z,15.80
2019-06-08T14:37:38.105Z,15.30
2019-06-08T14:40:08.267Z,15.80
2019-06-08T14:42:38.383Z,15.90
2019-06-08T14:45:10.841Z,15.30
2019-06-08T14:47:39.527Z,15.20
2019-06-08T14:50:09.010Z,15.10
2019-06-08T14:52:38.196Z,15.10
2019-06-08T14:55:08.024Z,15.30
2019-06-08T14:57:37.546Z,15.70
2019-06-08T15:00:09.627Z,16.10
2019-06-08T15:02:38.196Z,15.70
2019-06-08T15:05:07.815Z,16.30
2019-06-08T15:07:38.646Z,16.00
2019-06-08T15:10:09.776Z,16.30
2019-06-08T15:12:38.387Z,15.20
2019-06-08T15:15:10.760Z,15.30
2019-06-08T15:17:37.930Z,15.30
2019-06-08T15:20:08.948Z,14.90
2019-06-08T15:22:38.868Z,15.30
2019-06-08T15:25:10.809Z,14.50
2019-06-08T15:27:38.970Z,14.60
2019-06-08T15:30:07.698Z,13.60
2019-06-08T15:32:38.582Z,13.60
2019-06-08T15:35:08.085Z,13.70
2019-06-08T15:37:38.097Z,13.80
2019-06-08T15:40:07.833Z,14.10
2019-06-08T15:42:36.311Z,14.60
2019-06-08T15:45:08.322Z,14.60
2019-06-08T15:47:40.508Z,14.70
2019-06-08T15:50:08.920Z,15.60
2019-06-08T15:52:37.831Z,15.50
2019-06-08T15:55:10.894Z,15.70
2019-06-08T15:57:40.551Z,15.70
2019-06-08T16:00:10.151Z,15.60
2019-06-08T16:02:39.187Z,14.70
2019-06-08T16:05:08.930Z,14.70
2019-06-08T16:07:37.344Z,13.40
2019-06-08T16:10:08.949Z,13.00
2019-06-08T16:12:37.384Z,13.30
2019-06-08T16:15:07.601Z,13.50
2019-06-08T16:17:36.033Z,13.50
2019-06-08T16:20:05.592Z,13.60
2019-06-08T16:22:34.093Z,13.50
2019-06-08T16:25:02.543Z,13.70
2019-06-08T16:27:32.027Z,13.50
2019-06-08T16:30:00.649Z,13.10
2019-06-08T16:32:29.355Z,12.80
2019-06-08T16:34:57.825Z,13.00
2019-06-08T16:37:27.388Z,12.90
2019-06-08T16:39:55.921Z,12.80
2019-06-08T16:42:24.379Z,13.10
2019-06-08T16:44:52.822Z,13.20
2019-06-08T16:47:21.229Z,13.40
2019-06-08T16:49:49.667Z,13.30
2019-06-08T16:52:18.110Z,13.30
2019-06-08T16:54:46.585Z,13.50
2019-06-08T16:57:14.978Z,13.80
2019-06-08T16:59:43.401Z,13.90
2019-06-08T17:02:11.857Z,13.80
2019-06-08T17:04:40.287Z,14.20
2019-06-08T17:07:08.697Z,14.00
2019-06-08T17:09:37.847Z,14.20
2019-06-08T17:12:06.434Z,14.20
2019-06-08T17:14:36.141Z,14.50
2019-06-08T17:17:05.344Z,14.20
2019-06-08T17:19:34.164Z,14.50
2019-06-08T17:22:02.672Z,14.70
2019-06-08T17:24:32.383Z,15.10
2019-06-08T17:27:01.135Z,15.00
2019-06-08T17:29:30.716Z,15.00
2019-06-08T17:31:59.322Z,14.90
2019-06-08T17:34:27.738Z,14.90
2019-06-08T17:36:56.426Z,15.10
2019-06-08T17:39:24.857Z,15.00
2019-06-08T17:41:53.260Z,14.70
2019-06-08T17:44:21.673Z,14.70
2019-06-08T17:46:50.131Z,15.20
2019-06-08T17:49:18.550Z,15.00
2019-06-08T17:51:46.965Z,15.30
2019-06-08T17:54:15.402Z,15.50
2019-06-08T17:56:43.817Z,15.80
2019-06-08T17:59:12.253Z,15.40
2019-06-08T18:01:41.761Z,15.70
2019-06-08T18:04:10.409Z,15.50
2019-06-08T18:06:41.428Z,15.30
2019-06-08T18:09:09.037Z,15.60
2019-06-08T18:11:41.499Z,15.40
2019-06-08T18:14:09.402Z,16.60
2019-06-08T18:16:41.732Z,17.30
2019-06-08T18:19:11.115Z,17.50
2019-06-08T18:21:41.686Z,18.00
2019-06-08T18:24:09.744Z,17.90
2019-06-08T18:26:40.215Z,18.30
2019-06-08T18:29:08.507Z,18.30
2019-06-08T18:31:39.646Z,18.40
2019-06-08T18:34:08.395Z,19.40
2019-06-08T18:36:39.184Z,19.00
2019-06-08T18:39:07.357Z,19.40
2019-06-08T18:41:40.488Z,19.40
2019-06-08T18:44:08.611Z,19.60
2019-06-08T18:46:37.970Z,19.80
2019-06-08T18:49:09.008Z,20.00
2019-06-08T18:51:38.137Z,20.20
2019-06-08T18:54:14.497Z,20.30
2019-06-08T18:56:40.074Z,21.20
2019-06-08T18:59:07.911Z,20.50
2019-06-08T19:01:39.032Z,20.60
2019-06-08T19:04:07.659Z,21.00
2019-06-08T19:06:38.734Z,21.70
2019-06-08T19:09:08.353Z,20.90
2019-06-08T19:11:39.061Z,21.10
2019-06-08T19:14:09.185Z,21.50
2019-06-08T19:16:42.847Z,21.40
2019-06-08T19:19:08.173Z,21.80
2019-06-08T19:21:37.612Z,22.00
2019-06-08T19:24:09.628Z,21.70
2019-06-08T19:26:39.407Z,21.60
2019-06-08T19:29:07.729Z,21.90
2019-06-08T19:31:38.970Z,21.90
2019-06-08T19:34:07.644Z,22.00
2019-06-08T19:36:38.749Z,22.00
2019-06-08T19:39:08.253Z,22.20
2019-06-08T19:41:38.090Z,22.90
2019-06-08T19:44:07.534Z,23.20
2019-06-08T19:46:36.128Z,23.30
2019-06-08T19:49:04.609Z,23.30
2019-06-08T19:51:33.014Z,23.40
2019-06-08T19:54:01.747Z,23.70
2019-06-08T19:56:30.157Z,23.90
2019-06-08T19:59:03.847Z,23.90
2019-06-08T20:01:28.701Z,24.20
2019-06-08T20:04:00.409Z,24.60
2019-06-08T20:06:27.931Z,24.90
2019-06-08T20:08:57.516Z,25.40
2019-06-08T20:11:26.132Z,25.40
2019-06-08T20:13:54.529Z,26.00
2019-06-08T20:16:22.967Z,26.20
2019-06-08T20:18:52.890Z,26.30
2019-06-08T20:21:21.729Z,26.30
2019-06-08T20:23:50.960Z,26.30
2019-06-08T20:26:19.404Z,26.00
2019-06-08T20:28:51.204Z,26.30
2019-06-08T20:31:18.322Z,26.40
2019-06-08T20:33:50.233Z,26.00
2019-06-08T20:36:17.545Z,26.30
2019-06-08T20:38:47.424Z,26.50
2019-06-08T20:41:18.145Z,26.80
2019-06-08T20:43:49.090Z,26.80
2019-06-08T20:46:17.087Z,26.40
2019-06-08T20:48:48.382Z,27.70
2019-06-08T20:51:17.275Z,27.80
2019-06-08T20:53:48.832Z,28.10
2019-06-08T20:56:17.412Z,28.70
2019-06-08T20:58:47.918Z,28.70
2019-06-08T21:01:17.986Z,28.90
2019-06-08T21:03:48.569Z,29.80
2019-06-08T21:06:17.169Z,29.10
2019-06-08T21:08:48.559Z,29.60
2019-06-08T21:11:17.596Z,29.00
2019-06-08T21:13:49.300Z,29.10
2019-06-08T21:16:18.220Z,29.30
2019-06-08T21:18:46.900Z,30.50
2019-06-08T21:21:17.452Z,30.50
2019-06-08T21:23:48.913Z,30.70
2019-06-08T21:26:17.878Z,30.60
2019-06-08T21:28:49.829Z,30.20
2019-06-08T21:31:17.750Z,30.00
2019-06-08T21:33:49.093Z,30.00
2019-06-08T21:36:18.181Z,30.40
2019-06-08T21:38:49.857Z,30.60
2019-06-08T21:41:17.227Z,30.40
2019-06-08T21:43:45.753Z,30.70
2019-06-08T21:46:14.222Z,30.50
2019-06-08T21:48:42.917Z,30.70
2019-06-08T21:51:11.319Z,30.80
2019-06-08T21:53:39.770Z,30.80
2019-06-08T21:56:08.522Z,30.80
2019-06-08T21:58:37.787Z,30.80
2019-06-08T22:01:07.336Z,31.00
2019-06-08T22:03:38.065Z,30.80
2019-06-08T22:06:07.865Z,31.20
2019-06-08T22:08:37.601Z,31.20
2019-06-08T22:11:08.581Z,31.50
2019-06-08T22:13:37.407Z,31.50
2019-06-08T22:16:08.025Z,31.90
2019-06-08T22:18:38.053Z,32.40
2019-06-08T22:21:08.131Z,32.70
2019-06-08T22:23:36.771Z,32.50
2019-06-08T22:26:08.053Z,33.10
2019-06-08T22:28:37.567Z,33.20
2019-06-08T22:31:07.745Z,33.70
2019-06-08T22:33:37.882Z,33.70
2019-06-08T22:36:05.879Z,33.80
2019-06-08T22:38:34.306Z,33.70
2019-06-08T22:41:03.554Z,34.70
2019-06-08T22:43:32.118Z,33.60
2019-06-08T22:46:01.896Z,33.60
2019-06-08T22:48:30.746Z,33.80
2019-06-08T22:51:01.451Z,33.70
2019-06-08T22:53:29.367Z,34.00
2019-06-08T22:55:59.905Z,34.10
2019-06-08T22:58:28.291Z,33.90
2019-06-08T23:01:00.498Z,34.10
2019-06-08T23:03:26.819Z,33.70
2019-06-08T23:05:59.184Z,33.90
2019-06-08T23:08:25.903Z,34.00
2019-06-08T23:10:54.335Z,35.00
2019-06-08T23:13:22.739Z,35.40
2019-06-08T23:15:51.270Z,35.60
2019-06-08T23:18:19.688Z,35.90
2019-06-08T23:20:48.122Z,36.30
2019-06-08T23:23:17.899Z,36.00
2019-06-08T23:25:47.896Z,35.80
2019-06-08T23:28:18.060Z,35.90
2019-06-08T23:30:47.764Z,36.30
2019-06-08T23:33:18.941Z,36.40
2019-06-08T23:36:24.572Z,36.30
2019-06-08T23:38:17.438Z,36.20
2019-06-08T23:40:47.425Z,36.10
2019-06-08T23:43:18.086Z,36.00
2019-06-08T23:45:47.458Z,36.80
2019-06-08T23:48:17.343Z,37.00
2019-06-08T23:50:47.388Z,37.00
2019-06-08T23:53:18.028Z,37.20
2019-06-08T23:55:47.934Z,37.10
2019-06-08T23:58:17.475Z,37.50
